This is the latest recevied weather packets stored in our database for station/object KC1TWD. If no packets are shown the sender has not sent any weather packets the latest 10 day(s).
| Time | Temp. | Humidity | Pressure | Rain* | Wind** | Luminosity | Snow |
|---|---|---|---|---|---|---|---|
| 1777234652 | 18.89° C | 31% | 1019 hPa | 0 mm | - | - | - |
| 1777234347 | 18.89° C | 32% | 1019.1 hPa | 0 mm | - | - | - |
| 1777234043 | 18.89° C | 31% | 1019.1 hPa | 0 mm | - | - | - |
| 1777233740 | 19.44° C | 31% | 1019.1 hPa | 0 mm | - | - | - |
| 1777233435 | 19.44° C | 31% | 1019 hPa | 0 mm | - | - | - |
| 1777233134 | 18.89° C | 33% | 1019.1 hPa | 0 mm | - | - | - |
| 1777232831 | 19.44° C | 31% | 1019.3 hPa | 0 mm | - | - | - |
| 1777232530 | 18.89° C | 31% | 1019.2 hPa | 0 mm | - | - | - |
| 1777232228 | 18.89° C | 31% | 1019.1 hPa | 0 mm | - | - | - |
| 1777231923 | 19.44° C | 30% | 1019.3 hPa | 0 mm | - | - | - |
| 1777231620 | 18.89° C | 32% | 1019.3 hPa | 0 mm | - | - | - |
| 1777231316 | 18.89° C | 31% | 1019.3 hPa | 0 mm | - | - | - |
| 1777231012 | 18.89° C | 33% | 1019.2 hPa | 0 mm | - | - | - |
| 1777230709 | 18.89° C | 33% | 1019.3 hPa | 0 mm | - | - | - |
| 1777230404 | 19.44° C | 31% | 1019.2 hPa | 0 mm | - | - | - |
| 1777230100 | 18.89° C | 32% | 1019.5 hPa | 0 mm | - | - | - |
| 1777229797 | 18.89° C | 32% | 1019.2 hPa | 0 mm | - | - | - |
| 1777229494 | 17.78° C | 33% | 1019.6 hPa | 0 mm | - | - | - |
| 1777229191 | 18.33° C | 32% | 1019.4 hPa | 0 mm | - | - | - |
| 1777228888 | 17.78° C | 35% | 1019.6 hPa | 0 mm | - | - | - |
| 1777228584 | 18.33° C | 32% | 1019.6 hPa | 0 mm | - | - | - |
| 1777228281 | 18.33° C | 32% | 1019.7 hPa | 0 mm | - | - | - |
| 1777227981 | 18.89° C | 33% | 1019.6 hPa | 0 mm | - | - | - |
| 1777227681 | 18.33° C | 34% | 1019.8 hPa | 0 mm | - | - | - |
| 1777227377 | 18.33° C | 32% | 1019.7 hPa | 0 mm | - | - | - |
* Rain latest hour (hover to see other rain measurements)
** Current wind speed in m/s (hover to see current wind gust speed)